createdAt,value
2023-06-23T00:02:07.921Z,50028.09
2023-06-23T00:04:36.133Z,50045.28
2023-06-23T00:07:06.039Z,50034.08
2023-06-23T00:09:34.465Z,50040.08
2023-06-23T00:12:02.876Z,50035.29
2023-06-23T00:14:31.035Z,50024.09
2023-06-23T00:16:59.413Z,50039.28
2023-06-23T00:19:27.944Z,50043.68
2023-06-23T00:21:56.404Z,50045.28
2023-06-23T00:24:24.591Z,50045.28
2023-06-23T00:26:52.712Z,50046.88
2023-06-23T00:29:22.180Z,50048.48
2023-06-23T00:31:52.085Z,50044.88
2023-06-23T00:34:20.619Z,50056.48
2023-06-23T00:36:48.710Z,50036.48
2023-06-23T00:39:16.905Z,50044.48
2023-06-23T00:41:45.054Z,50043.68
2023-06-23T00:44:13.302Z,50042.88
2023-06-23T00:46:44.972Z,50050.88
2023-06-23T00:49:16.573Z,50044.48
2023-06-23T00:51:47.110Z,50058.48
2023-06-23T00:54:15.496Z,50054.07
2023-06-23T00:56:43.737Z,50048.88
2023-06-23T00:59:11.952Z,50049.68
2023-06-23T01:01:40.270Z,50051.68
2023-06-23T01:04:24.024Z,50042.88
2023-06-23T01:07:18.262Z,50036.48
2023-06-23T01:10:20.992Z,50043.68
2023-06-23T01:13:00.538Z,50037.68
2023-06-23T01:15:36.289Z,50046.88
2023-06-23T01:18:28.732Z,50033.29
2023-06-23T01:21:04.846Z,50047.68
2023-06-23T01:24:03.738Z,50057.68
2023-06-23T01:26:55.372Z,50036.89
2023-06-23T01:29:32.958Z,50034.09
2023-06-23T01:32:07.107Z,50054.07
2023-06-23T01:34:46.354Z,50046.48
2023-06-23T01:37:21.702Z,50069.27
2023-06-23T01:39:57.351Z,50052.88
2023-06-23T01:42:28.494Z,50063.68
2023-06-23T01:44:59.819Z,50047.27
2023-06-23T01:47:34.773Z,50054.48
2023-06-23T01:50:05.389Z,50056.48
2023-06-23T01:52:36.837Z,50040.88
2023-06-23T01:55:06.749Z,50050.88
2023-06-23T01:57:37.828Z,50052.07
2023-06-23T02:00:17.416Z,50059.68
2023-06-23T02:02:48.641Z,50052.08
2023-06-23T02:05:21.189Z,50054.08
2023-06-23T02:07:51.613Z,50067.27
2023-06-23T02:10:22.975Z,50052.48
2023-06-23T02:12:52.184Z,50047.27
2023-06-23T02:15:22.945Z,50044.48
2023-06-23T02:17:53.214Z,50038.88
2023-06-23T02:20:25.000Z,50046.08
2023-06-23T02:22:54.339Z,50062.07
2023-06-23T02:25:23.943Z,50056.07
2023-06-23T02:27:52.815Z,50041.28
2023-06-23T02:30:21.528Z,50056.07
2023-06-23T02:32:49.848Z,50060.07
2023-06-23T02:35:18.436Z,50058.48
2023-06-23T02:38:00.694Z,50058.48
2023-06-23T02:40:32.050Z,50080.06
2023-06-23T02:43:26.451Z,50052.08
2023-06-23T02:45:58.731Z,50047.28
2023-06-23T02:48:33.749Z,50052.48
2023-06-23T02:51:03.642Z,50052.88
2023-06-23T02:53:39.770Z,50050.88
2023-06-23T02:56:18.401Z,50057.27
2023-06-23T02:58:50.703Z,50050.08
2023-06-23T03:01:23.852Z,50053.68
2023-06-23T03:03:53.151Z,50048.48
2023-06-23T03:06:24.266Z,50043.68
2023-06-23T03:08:52.556Z,50058.08
2023-06-23T03:11:22.354Z,50070.47
2023-06-23T03:13:51.107Z,50047.28
2023-06-23T03:16:31.301Z,50024.89
2023-06-23T03:19:16.597Z,50027.69
2023-06-23T03:21:50.121Z,50017.70
2023-06-23T03:24:21.274Z,50020.89
2023-06-23T03:26:53.001Z,50020.09
2023-06-23T03:29:24.122Z,50018.89
2023-06-23T03:31:56.887Z,50021.29
2023-06-23T03:34:33.368Z,50018.49
2023-06-23T03:37:07.744Z,50006.89
2023-06-23T03:39:42.774Z,49999.30
2023-06-23T03:42:11.475Z,49979.30
2023-06-23T03:44:48.112Z,49988.90
2023-06-23T03:47:22.802Z,49997.30
2023-06-23T03:49:57.396Z,49988.10
2023-06-23T03:52:27.611Z,49993.70
2023-06-23T03:54:57.522Z,49994.90
2023-06-23T03:57:31.223Z,49982.10
2023-06-23T04:00:00.672Z,49974.11
2023-06-23T04:02:31.560Z,49995.30
2023-06-23T04:05:02.363Z,49984.50
2023-06-23T04:07:32.140Z,49974.91
2023-06-23T04:10:05.511Z,49989.30
2023-06-23T04:12:36.689Z,49980.91
2023-06-23T04:15:09.414Z,49997.70
2023-06-23T04:17:41.775Z,49985.30
2023-06-23T04:20:13.582Z,49993.70
2023-06-23T04:22:45.460Z,49992.10
2023-06-23T04:25:17.974Z,50010.49
2023-06-23T04:27:51.960Z,49991.30
2023-06-23T04:30:23.849Z,49993.70
2023-06-23T04:32:52.556Z,50006.50
2023-06-23T04:35:20.937Z,49982.10
2023-06-23T04:38:03.905Z,49983.30
2023-06-23T04:40:42.681Z,49984.50
2023-06-23T04:43:18.045Z,49976.91
2023-06-23T04:45:54.639Z,49968.91
2023-06-23T04:48:28.398Z,49962.51
2023-06-23T04:50:59.635Z,49963.31
2023-06-23T04:53:33.826Z,49946.92
2023-06-23T04:56:05.940Z,49960.91
2023-06-23T04:58:37.401Z,49963.31
2023-06-23T05:01:10.148Z,49965.31
2023-06-23T05:03:41.303Z,49969.71
2023-06-23T05:06:12.179Z,49957.32
2023-06-23T05:08:43.258Z,49951.32
2023-06-23T05:11:13.645Z,49947.32
2023-06-23T05:13:44.872Z,49938.52
2023-06-23T05:16:16.012Z,49941.73
2023-06-23T05:18:47.019Z,49929.73
2023-06-23T05:21:23.162Z,49942.12
2023-06-23T05:23:55.640Z,49947.32
2023-06-23T05:26:35.223Z,49958.91
2023-06-23T05:29:08.242Z,49932.93
2023-06-23T05:31:41.916Z,49932.12
2023-06-23T05:34:14.139Z,49942.52
2023-06-23T05:36:44.812Z,49947.71
2023-06-23T05:39:21.190Z,49955.72
2023-06-23T05:41:50.595Z,49944.92
2023-06-23T05:44:20.423Z,49948.91
2023-06-23T05:46:56.266Z,49927.32
2023-06-23T05:49:28.143Z,49948.92
2023-06-23T05:52:00.159Z,49938.12
2023-06-23T05:54:32.213Z,49946.92
2023-06-23T05:57:03.207Z,49940.92
2023-06-23T05:59:46.796Z,49943.32
2023-06-23T06:02:25.743Z,49950.91
2023-06-23T06:04:58.934Z,49932.13
2023-06-23T06:07:29.101Z,49942.52
2023-06-23T06:09:59.996Z,49938.92
2023-06-23T06:12:29.981Z,49928.93
2023-06-23T06:15:00.932Z,49929.33
2023-06-23T06:17:31.937Z,49934.93
2023-06-23T06:20:04.329Z,49935.73
2023-06-23T06:22:36.964Z,49930.93
2023-06-23T06:25:10.226Z,49930.13
2023-06-23T06:27:40.498Z,49934.93
2023-06-23T06:30:12.158Z,49924.93
2023-06-23T06:32:42.459Z,49935.72
2023-06-23T06:35:12.599Z,49936.13
2023-06-23T06:37:49.298Z,49936.12
2023-06-23T06:40:23.098Z,49944.91
2023-06-23T06:42:52.249Z,49930.13
2023-06-23T06:45:21.270Z,49938.52
2023-06-23T06:47:50.879Z,49922.13
2023-06-23T06:50:21.150Z,49935.72
2023-06-23T06:52:51.206Z,49923.33
2023-06-23T06:55:21.473Z,49927.33
2023-06-23T06:57:49.911Z,49942.52
2023-06-23T07:00:20.944Z,49930.13
2023-06-23T07:02:49.720Z,49934.52
2023-06-23T07:05:18.369Z,49924.13
2023-06-23T07:07:47.194Z,49907.73
2023-06-23T07:10:15.456Z,49934.92
2023-06-23T07:12:44.962Z,49929.73
2023-06-23T07:15:36.598Z,49932.52
2023-06-23T07:18:04.874Z,49938.52
2023-06-23T07:20:33.428Z,49931.33
2023-06-23T07:23:01.995Z,49923.73
2023-06-23T07:25:30.245Z,49914.93
2023-06-23T07:28:01.136Z,49906.94
2023-06-23T07:30:29.417Z,49920.53
2023-06-23T07:32:57.916Z,49931.73
2023-06-23T07:35:28.730Z,49929.33
2023-06-23T07:37:57.018Z,49914.13
2023-06-23T07:40:25.484Z,49926.93
2023-06-23T07:42:54.304Z,49919.73
2023-06-23T07:45:22.702Z,49934.13
2023-06-23T07:47:51.013Z,49918.13
2023-06-23T07:50:19.649Z,49917.73
2023-06-23T07:52:56.753Z,49911.73
2023-06-23T07:55:25.038Z,49906.93
2023-06-23T07:57:54.550Z,49936.93
2023-06-23T08:00:24.877Z,49921.73
2023-06-23T08:02:53.242Z,49911.34
2023-06-23T08:05:21.457Z,49917.73
2023-06-23T08:07:49.782Z,49923.73
2023-06-23T08:10:18.045Z,49910.14
2023-06-23T08:12:46.343Z,49922.93
2023-06-23T08:15:14.851Z,49917.73
2023-06-23T08:17:43.244Z,49917.73
2023-06-23T08:20:12.292Z,49926.53
2023-06-23T08:22:41.952Z,49926.93
2023-06-23T08:25:10.347Z,49928.52
2023-06-23T08:27:39.023Z,49931.73
2023-06-23T08:30:08.306Z,49912.13
2023-06-23T08:32:36.689Z,49934.93
2023-06-23T08:35:05.721Z,49924.53
2023-06-23T08:37:34.075Z,49930.52
2023-06-23T08:40:02.368Z,49932.13
2023-06-23T08:42:37.136Z,49929.73
2023-06-23T08:45:07.654Z,49926.53
2023-06-23T08:47:41.276Z,49927.33
2023-06-23T08:50:09.978Z,49921.33
2023-06-23T08:52:39.496Z,49928.53
2023-06-23T08:55:12.101Z,49932.13
2023-06-23T08:57:40.732Z,49923.33
2023-06-23T09:00:09.921Z,49924.13
2023-06-23T09:02:38.285Z,49921.73
2023-06-23T09:05:06.708Z,49915.73
2023-06-23T09:07:37.225Z,49912.13
2023-06-23T09:10:07.458Z,49916.93
2023-06-23T09:12:35.914Z,49902.94
2023-06-23T09:15:04.604Z,49920.13
2023-06-23T09:17:35.749Z,49914.54
2023-06-23T09:20:05.291Z,49922.13
2023-06-23T09:22:36.046Z,49912.53
2023-06-23T09:25:04.510Z,49923.73
2023-06-23T09:27:42.983Z,49924.13
2023-06-23T09:30:13.654Z,49922.53
2023-06-23T09:32:45.547Z,49926.13
2023-06-23T09:35:19.313Z,49924.13
2023-06-23T09:37:49.020Z,49932.93
2023-06-23T09:40:24.830Z,49906.14
2023-06-23T09:43:00.756Z,49922.53
2023-06-23T09:45:29.635Z,49912.93
2023-06-23T09:47:58.169Z,49922.53
2023-06-23T09:50:31.306Z,49909.73
2023-06-23T09:53:04.812Z,49928.13
2023-06-23T09:55:33.063Z,49912.13
2023-06-23T09:58:09.966Z,49922.93
2023-06-23T10:00:38.807Z,49911.73
2023-06-23T10:03:07.206Z,49921.33
2023-06-23T10:05:38.338Z,49927.32
2023-06-23T10:08:12.771Z,49919.33
2023-06-23T10:10:43.621Z,49913.73
2023-06-23T10:13:11.953Z,49922.13
2023-06-23T10:15:42.823Z,49932.52
2023-06-23T10:18:13.683Z,49930.93
2023-06-23T10:20:42.626Z,49923.73
2023-06-23T10:23:14.032Z,49907.34
2023-06-23T10:25:46.672Z,49914.53
2023-06-23T10:28:18.641Z,49925.33
2023-06-23T10:30:47.500Z,49923.73
2023-06-23T10:33:21.426Z,49929.73
2023-06-23T10:35:53.477Z,49926.13
2023-06-23T10:38:26.424Z,49939.32
2023-06-23T10:41:00.479Z,49918.93
2023-06-23T10:43:35.448Z,49916.53
2023-06-23T10:46:06.079Z,49918.93
2023-06-23T10:48:35.462Z,49919.33
2023-06-23T10:51:04.571Z,49924.13
2023-06-23T10:53:35.129Z,49918.93
2023-06-23T10:56:09.600Z,49929.73
2023-06-23T10:58:54.249Z,49917.33
2023-06-23T11:01:23.438Z,49920.53
2023-06-23T11:03:53.957Z,49936.12
2023-06-23T11:06:36.158Z,49924.13
2023-06-23T11:09:46.495Z,49924.93
2023-06-23T11:12:40.234Z,49922.93
2023-06-23T11:15:16.784Z,49917.33
2023-06-23T11:17:47.215Z,49922.53
2023-06-23T11:20:21.803Z,49924.53
2023-06-23T11:23:13.884Z,49923.33
2023-06-23T11:25:48.594Z,49926.93
2023-06-23T11:28:31.066Z,49929.73
2023-06-23T11:31:05.093Z,49914.13
2023-06-23T11:33:39.991Z,49917.33
2023-06-23T11:36:13.676Z,49921.73
2023-06-23T11:38:44.565Z,49902.94
2023-06-23T11:41:24.455Z,49903.74
2023-06-23T11:44:00.415Z,49920.13
2023-06-23T11:46:32.613Z,49911.33
2023-06-23T11:49:15.137Z,49912.93
2023-06-23T11:51:44.442Z,49916.93
2023-06-23T11:54:12.776Z,49918.13
2023-06-23T11:56:43.922Z,49910.13
2023-06-23T11:59:14.350Z,49907.74
2023-06-23T12:01:42.654Z,49902.13
2023-06-23T12:04:11.088Z,49915.73
2023-06-23T12:06:39.558Z,49910.93
2023-06-23T12:09:08.455Z,49909.33
2023-06-23T12:11:38.969Z,49913.73
2023-06-23T12:14:09.953Z,49913.73
2023-06-23T12:16:38.754Z,49907.73
2023-06-23T12:19:07.294Z,49926.52
2023-06-23T12:21:42.188Z,49908.54
2023-06-23T12:24:13.287Z,49913.33
2023-06-23T12:26:43.109Z,49921.73
2023-06-23T12:29:12.801Z,49920.53
2023-06-23T12:31:41.324Z,49927.33
2023-06-23T12:34:14.677Z,49918.13
2023-06-23T12:36:44.192Z,49908.13
2023-06-23T12:39:18.797Z,49888.54
2023-06-23T12:41:49.963Z,49883.74
2023-06-23T12:44:22.341Z,49906.54
2023-06-23T12:46:51.432Z,49897.74
2023-06-23T12:49:20.424Z,49902.94
2023-06-23T12:51:49.061Z,49901.74
2023-06-23T12:54:18.911Z,49902.93
2023-06-23T12:56:48.110Z,49890.95
2023-06-23T12:59:17.585Z,49911.73
2023-06-23T13:01:49.466Z,49898.54
2023-06-23T13:04:25.884Z,49898.54
2023-06-23T13:06:58.986Z,49898.54
2023-06-23T13:09:27.247Z,49900.14
2023-06-23T13:11:55.499Z,49903.34
2023-06-23T13:14:24.753Z,49894.54
2023-06-23T13:16:53.297Z,49898.94
2023-06-23T13:19:21.493Z,49903.74
2023-06-23T13:21:52.957Z,49904.14
2023-06-23T13:24:24.224Z,49902.54
2023-06-23T13:26:53.446Z,49916.13
2023-06-23T13:29:21.992Z,49900.54
2023-06-23T13:31:54.666Z,49896.14
2023-06-23T13:34:24.407Z,49902.54
2023-06-23T13:36:54.530Z,49912.13
2023-06-23T13:39:23.267Z,49896.94
2023-06-23T13:41:51.594Z,49890.14
2023-06-23T13:44:19.789Z,49898.54
2023-06-23T13:46:50.314Z,49902.54
2023-06-23T13:49:19.213Z,49908.54
2023-06-23T13:51:51.142Z,49899.74
2023-06-23T13:54:30.472Z,49902.14
2023-06-23T13:57:00.419Z,49904.54
2023-06-23T13:59:29.315Z,49900.14
2023-06-23T14:02:00.229Z,49914.13
2023-06-23T14:04:29.356Z,49912.53
2023-06-23T14:06:58.672Z,49906.93
2023-06-23T14:09:31.412Z,49896.54
2023-06-23T14:12:00.516Z,49912.13
2023-06-23T14:14:32.365Z,49904.54
2023-06-23T14:17:00.891Z,49926.13
2023-06-23T14:19:32.466Z,49900.54
2023-06-23T14:22:07.223Z,49912.53
2023-06-23T14:24:39.350Z,49902.94
2023-06-23T14:27:09.974Z,49908.54
2023-06-23T14:29:47.150Z,49910.93
2023-06-23T14:32:15.619Z,49899.74
2023-06-23T14:34:46.558Z,49901.74
2023-06-23T14:37:21.982Z,49902.94
2023-06-23T14:39:54.440Z,49912.13
2023-06-23T14:42:25.146Z,49904.13
2023-06-23T14:44:54.498Z,49898.14
2023-06-23T14:47:26.358Z,49901.74
2023-06-23T14:49:58.333Z,49906.93
2023-06-23T14:52:26.732Z,49889.34
2023-06-23T14:54:57.885Z,49885.34
2023-06-23T14:57:29.248Z,49881.75
2023-06-23T15:00:00.166Z,49884.95
2023-06-23T15:02:29.356Z,49894.14
2023-06-23T15:04:59.747Z,49881.34
2023-06-23T15:07:29.494Z,49881.74
2023-06-23T15:10:00.957Z,49897.34
2023-06-23T15:12:29.321Z,49880.15
2023-06-23T15:14:58.620Z,49882.14
2023-06-23T15:17:27.108Z,49872.15
2023-06-23T15:19:55.322Z,49876.15
2023-06-23T15:22:25.564Z,49868.55
2023-06-23T15:24:54.263Z,49867.75
2023-06-23T15:27:22.906Z,49863.36
2023-06-23T15:29:52.218Z,49857.76
2023-06-23T15:32:20.973Z,49861.75
2023-06-23T15:34:49.157Z,49860.16
2023-06-23T15:37:17.693Z,49852.16
2023-06-23T15:39:45.972Z,49856.55
2023-06-23T15:42:14.603Z,49883.35
2023-06-23T15:44:42.922Z,49864.55
2023-06-23T15:47:11.246Z,49864.95
2023-06-23T15:49:39.488Z,49857.76
2023-06-23T15:52:08.860Z,49872.55
2023-06-23T15:54:37.194Z,49860.16
2023-06-23T15:57:10.651Z,49844.96
2023-06-23T15:59:39.656Z,49867.35
2023-06-23T16:02:07.858Z,49857.36
2023-06-23T16:04:36.875Z,49870.96
2023-06-23T16:07:07.646Z,49880.15
2023-06-23T16:09:35.911Z,49869.35
2023-06-23T16:12:04.391Z,49874.15
2023-06-23T16:14:35.940Z,49877.35
2023-06-23T16:17:06.766Z,49868.15
2023-06-23T16:19:36.496Z,49884.15
2023-06-23T16:22:06.518Z,49874.95
2023-06-23T16:24:35.065Z,49879.75
2023-06-23T16:27:03.458Z,49896.54
2023-06-23T16:29:31.626Z,49882.14
2023-06-23T16:32:00.280Z,49860.16
2023-06-23T16:34:28.812Z,49864.55
2023-06-23T16:36:59.449Z,49857.76
2023-06-23T16:39:28.642Z,49846.56
2023-06-23T16:42:00.291Z,49870.95
2023-06-23T16:44:30.053Z,49873.75
2023-06-23T16:47:03.659Z,49854.96
2023-06-23T16:49:32.895Z,49880.54
2023-06-23T16:52:01.137Z,49901.74
2023-06-23T16:54:30.686Z,49880.95
2023-06-23T16:56:59.126Z,49882.95
2023-06-23T16:59:30.094Z,49857.75
2023-06-23T17:01:58.727Z,49874.95
2023-06-23T17:04:28.765Z,49871.35
2023-06-23T17:06:57.157Z,49882.55
2023-06-23T17:09:26.452Z,49887.34
2023-06-23T17:12:12.073Z,49880.15
2023-06-23T17:14:46.950Z,49900.14
2023-06-23T17:17:15.334Z,49896.94
2023-06-23T17:19:44.074Z,49901.34
2023-06-23T17:22:15.350Z,49914.93
2023-06-23T17:24:47.202Z,49896.54
2023-06-23T17:27:15.861Z,49924.93
2023-06-23T17:29:44.192Z,49932.12
2023-06-23T17:32:12.529Z,49939.32
2023-06-23T17:34:40.977Z,49945.72
2023-06-23T17:37:09.877Z,49952.52
2023-06-23T17:39:38.281Z,49959.32
2023-06-23T17:42:06.925Z,49969.71
2023-06-23T17:44:35.079Z,49978.51
2023-06-23T17:47:06.676Z,49988.10
2023-06-23T17:49:36.846Z,49995.70
2023-06-23T17:52:05.761Z,49988.11
2023-06-23T17:54:35.631Z,49998.90
2023-06-23T17:57:04.625Z,50000.50
2023-06-23T17:59:32.969Z,50012.89
2023-06-23T18:02:02.566Z,50001.30
2023-06-23T18:04:30.896Z,50016.89
2023-06-23T18:06:59.535Z,50009.70
2023-06-23T18:09:28.598Z,50000.90
2023-06-23T18:11:57.373Z,50021.29
2023-06-23T18:14:25.914Z,50007.29
2023-06-23T18:16:56.105Z,50015.29
2023-06-23T18:19:27.651Z,50028.09
2023-06-23T18:21:55.948Z,50019.69
2023-06-23T18:24:29.080Z,50016.49
2023-06-23T18:26:58.814Z,50015.69
2023-06-23T18:29:27.314Z,50010.49
2023-06-23T18:32:23.270Z,50024.49
2023-06-23T18:35:00.675Z,50028.09
2023-06-23T18:37:29.717Z,50024.49
2023-06-23T18:39:58.496Z,50024.49
2023-06-23T18:42:38.599Z,50036.88
2023-06-23T18:45:08.923Z,50018.09
2023-06-23T18:47:37.971Z,50038.48
2023-06-23T18:50:07.164Z,50028.88
2023-06-23T18:52:37.690Z,50030.09
2023-06-23T18:55:06.170Z,50044.88
2023-06-23T18:57:34.685Z,50024.89
2023-06-23T19:00:06.594Z,50038.08
2023-06-23T19:02:35.175Z,50019.70
2023-06-23T19:05:05.754Z,50034.49
2023-06-23T19:07:34.607Z,50034.48
2023-06-23T19:10:03.370Z,50032.48
2023-06-23T19:12:31.713Z,50039.28
2023-06-23T19:15:01.738Z,50041.68
2023-06-23T19:17:30.190Z,50032.09
2023-06-23T19:19:58.558Z,50034.48
2023-06-23T19:22:27.060Z,50040.88
2023-06-23T19:24:55.733Z,50032.09
2023-06-23T19:27:24.676Z,50025.29
2023-06-23T19:29:53.069Z,50036.88
2023-06-23T19:32:21.296Z,50045.27
2023-06-23T19:34:51.648Z,50038.88
2023-06-23T19:37:20.070Z,50048.88
2023-06-23T19:39:59.277Z,50047.28
2023-06-23T19:42:28.846Z,50051.68
2023-06-23T19:44:57.180Z,50035.68
2023-06-23T19:47:25.568Z,50036.88
2023-06-23T19:49:54.807Z,50046.88
2023-06-23T19:52:23.472Z,50040.08
2023-06-23T19:54:51.767Z,50039.68
2023-06-23T19:57:19.940Z,50062.07
2023-06-23T19:59:51.017Z,50041.68
2023-06-23T20:02:22.026Z,50046.48
2023-06-23T20:04:50.430Z,50054.07
2023-06-23T20:07:19.819Z,50051.68
2023-06-23T20:09:48.177Z,50044.08
2023-06-23T20:12:16.454Z,50048.88
2023-06-23T20:14:45.304Z,50047.68
2023-06-23T20:17:16.133Z,50055.68
2023-06-23T20:19:45.067Z,50045.28
2023-06-23T20:22:13.675Z,50051.28
2023-06-23T20:24:41.883Z,50057.27
2023-06-23T20:27:10.190Z,50040.88
2023-06-23T20:29:38.852Z,50048.88
2023-06-23T20:32:09.707Z,50052.88
2023-06-23T20:34:38.610Z,50052.48
2023-06-23T20:37:06.919Z,50043.28
2023-06-23T20:39:35.256Z,50046.88
2023-06-23T20:42:04.362Z,50036.48
2023-06-23T20:44:33.832Z,50048.88
2023-06-23T20:47:10.052Z,50051.27
2023-06-23T20:49:38.383Z,50058.48
2023-06-23T20:52:06.896Z,50055.68
2023-06-23T20:54:35.769Z,50055.27
2023-06-23T20:57:04.199Z,50050.48
2023-06-23T20:59:32.940Z,50068.87
2023-06-23T21:02:01.228Z,50058.88
2023-06-23T21:04:29.566Z,50053.27
2023-06-23T21:06:57.804Z,50049.27
2023-06-23T21:09:27.539Z,50049.28
2023-06-23T21:11:57.964Z,50062.87
2023-06-23T21:14:26.253Z,50060.47
2023-06-23T21:16:54.412Z,50063.27
2023-06-23T21:19:23.335Z,50055.68
2023-06-23T21:21:51.475Z,50049.68
2023-06-23T21:24:20.251Z,50061.27
2023-06-23T21:26:48.972Z,50057.67
2023-06-23T21:29:17.254Z,50066.87
2023-06-23T21:31:45.860Z,50063.67
2023-06-23T21:34:14.136Z,50068.47
2023-06-23T21:36:42.265Z,50060.48
2023-06-23T21:39:10.463Z,50055.27
2023-06-23T21:41:38.749Z,50048.88
2023-06-23T21:44:06.977Z,50056.48
2023-06-23T21:46:35.518Z,50058.48
2023-06-23T21:49:03.740Z,50052.88
2023-06-23T21:51:32.385Z,50042.48
2023-06-23T21:54:00.568Z,50061.27
2023-06-23T21:56:30.163Z,50070.07
2023-06-23T21:58:58.648Z,50063.67
2023-06-23T22:01:29.020Z,50058.48
2023-06-23T22:03:57.829Z,50064.48
2023-06-23T22:06:26.047Z,50078.87
2023-06-23T22:08:54.328Z,50065.27
2023-06-23T22:11:24.402Z,50076.46
2023-06-23T22:13:53.010Z,50073.67
2023-06-23T22:16:21.364Z,50064.88
2023-06-23T22:18:50.521Z,50063.27
2023-06-23T22:21:19.399Z,50077.66
2023-06-23T22:23:47.877Z,50076.47
2023-06-23T22:26:16.156Z,50083.66
2023-06-23T22:28:44.374Z,50071.67
2023-06-23T22:31:14.986Z,50079.27
2023-06-23T22:33:43.160Z,50080.47
2023-06-23T22:36:11.798Z,50098.06
2023-06-23T22:38:40.183Z,50080.87
2023-06-23T22:41:08.454Z,50071.67
2023-06-23T22:43:36.929Z,50082.47
2023-06-23T22:46:07.918Z,50090.46
2023-06-23T22:48:38.555Z,50085.66
2023-06-23T22:51:06.707Z,50086.46
2023-06-23T22:53:37.580Z,50088.87
2023-06-23T22:56:09.677Z,50080.47
2023-06-23T22:58:38.133Z,50095.26
2023-06-23T23:01:06.710Z,50086.46
2023-06-23T23:03:34.868Z,50084.07
2023-06-23T23:06:04.086Z,50086.46
2023-06-23T23:08:32.326Z,50094.86
2023-06-23T23:11:02.621Z,50089.26
2023-06-23T23:13:31.081Z,50080.87
2023-06-23T23:15:59.302Z,50080.07
2023-06-23T23:18:27.496Z,50077.66
2023-06-23T23:20:55.902Z,50086.86
2023-06-23T23:23:24.193Z,50082.86
2023-06-23T23:25:55.546Z,50094.06
2023-06-23T23:28:23.975Z,50094.86
2023-06-23T23:30:54.451Z,50089.66
2023-06-23T23:33:22.991Z,50074.07
2023-06-23T23:35:51.342Z,50084.06
2023-06-23T23:38:19.874Z,50077.67
2023-06-23T23:40:48.359Z,50100.86
2023-06-23T23:43:16.509Z,50089.66
2023-06-23T23:45:44.754Z,50094.46
2023-06-23T23:48:13.993Z,50085.66
2023-06-23T23:50:42.115Z,50091.66
2023-06-23T23:53:10.294Z,50088.46
2023-06-23T23:55:38.436Z,50086.87
2023-06-23T23:58:06.602Z,50088.07
